sensor_id;sensor_type;location;lat;lon;timestamp;P1;durP1;ratioP1;P2;durP2;ratioP2
41233;SDS011;26968;42.686;23.352;2023-06-14T00:01:11;9.50;;;6.60;;
41233;SDS011;26968;42.686;23.352;2023-06-14T00:03:38;20.42;;;5.72;;
41233;SDS011;26968;42.686;23.352;2023-06-14T00:06:04;12.70;;;6.10;;
41233;SDS011;26968;42.686;23.352;2023-06-14T00:08:29;12.70;;;5.85;;
41233;SDS011;26968;42.686;23.352;2023-06-14T00:10:55;12.80;;;6.03;;
41233;SDS011;26968;42.686;23.352;2023-06-14T00:13:21;11.55;;;5.72;;
41233;SDS011;26968;42.686;23.352;2023-06-14T00:15:46;7.88;;;5.43;;
41233;SDS011;26968;42.686;23.352;2023-06-14T00:18:12;6.68;;;5.45;;
41233;SDS011;26968;42.686;23.352;2023-06-14T00:20:38;14.90;;;6.18;;
41233;SDS011;26968;42.686;23.352;2023-06-14T00:23:04;9.00;;;5.50;;
41233;SDS011;26968;42.686;23.352;2023-06-14T00:25:30;11.25;;;6.75;;
41233;SDS011;26968;42.686;23.352;2023-06-14T00:27:55;8.48;;;6.60;;
41233;SDS011;26968;42.686;23.352;2023-06-14T00:30:22;8.77;;;6.00;;
41233;SDS011;26968;42.686;23.352;2023-06-14T00:32:48;8.77;;;5.72;;
41233;SDS011;26968;42.686;23.352;2023-06-14T00:35:13;7.95;;;5.47;;
41233;SDS011;26968;42.686;23.352;2023-06-14T00:37:40;10.65;;;5.40;;
41233;SDS011;26968;42.686;23.352;2023-06-14T00:40:05;8.38;;;5.30;;
41233;SDS011;26968;42.686;23.352;2023-06-14T00:42:31;9.95;;;5.78;;
41233;SDS011;26968;42.686;23.352;2023-06-14T00:44:57;13.20;;;5.78;;
41233;SDS011;26968;42.686;23.352;2023-06-14T00:47:22;10.88;;;6.28;;
41233;SDS011;26968;42.686;23.352;2023-06-14T00:49:49;11.10;;;6.25;;
41233;SDS011;26968;42.686;23.352;2023-06-14T00:52:18;13.40;;;6.43;;
41233;SDS011;26968;42.686;23.352;2023-06-14T00:54:44;14.88;;;6.78;;
41233;SDS011;26968;42.686;23.352;2023-06-14T00:57:10;8.38;;;6.05;;
41233;SDS011;26968;42.686;23.352;2023-06-14T00:59:43;10.35;;;5.72;;
41233;SDS011;26968;42.686;23.352;2023-06-14T01:02:10;10.45;;;6.32;;
41233;SDS011;26968;42.686;23.352;2023-06-14T01:04:36;8.65;;;6.18;;
41233;SDS011;26968;42.686;23.352;2023-06-14T01:15:34;9.63;;;5.82;;
41233;SDS011;26968;42.686;23.352;2023-06-14T01:18:01;13.88;;;6.28;;
41233;SDS011;26968;42.686;23.352;2023-06-14T01:20:31;8.27;;;5.53;;
41233;SDS011;26968;42.686;23.352;2023-06-14T01:22:58;7.15;;;5.15;;
41233;SDS011;26968;42.686;23.352;2023-06-14T01:25:24;9.70;;;5.95;;
41233;SDS011;26968;42.686;23.352;2023-06-14T01:28:00;11.63;;;6.28;;
41233;SDS011;26968;42.686;23.352;2023-06-14T01:30:29;12.02;;;5.53;;
41233;SDS011;26968;42.686;23.352;2023-06-14T01:32:55;15.00;;;6.50;;
41233;SDS011;26968;42.686;23.352;2023-06-14T01:35:22;8.25;;;6.50;;
41233;SDS011;26968;42.686;23.352;2023-06-14T01:37:48;9.68;;;6.30;;
41233;SDS011;26968;42.686;23.352;2023-06-14T01:40:15;18.42;;;6.80;;
41233;SDS011;26968;42.686;23.352;2023-06-14T01:42:42;12.13;;;6.03;;
41233;SDS011;26968;42.686;23.352;2023-06-14T01:45:10;10.73;;;6.60;;
41233;SDS011;26968;42.686;23.352;2023-06-14T01:47:36;8.65;;;6.50;;
41233;SDS011;26968;42.686;23.352;2023-06-14T01:50:02;9.20;;;6.90;;
41233;SDS011;26968;42.686;23.352;2023-06-14T01:52:28;11.40;;;7.00;;
41233;SDS011;26968;42.686;23.352;2023-06-14T01:54:54;8.00;;;6.60;;
41233;SDS011;26968;42.686;23.352;2023-06-14T01:57:19;11.95;;;6.82;;
41233;SDS011;26968;42.686;23.352;2023-06-14T01:59:45;9.05;;;6.50;;
41233;SDS011;26968;42.686;23.352;2023-06-14T02:02:13;10.55;;;6.10;;
41233;SDS011;26968;42.686;23.352;2023-06-14T02:04:40;12.48;;;6.32;;
41233;SDS011;26968;42.686;23.352;2023-06-14T02:07:05;10.10;;;6.05;;
41233;SDS011;26968;42.686;23.352;2023-06-14T02:09:31;7.78;;;6.60;;
41233;SDS011;26968;42.686;23.352;2023-06-14T02:11:56;8.43;;;6.00;;
41233;SDS011;26968;42.686;23.352;2023-06-14T02:14:22;8.88;;;6.32;;
41233;SDS011;26968;42.686;23.352;2023-06-14T02:16:48;13.65;;;6.65;;
41233;SDS011;26968;42.686;23.352;2023-06-14T02:19:15;9.48;;;7.05;;
41233;SDS011;26968;42.686;23.352;2023-06-14T02:21:41;9.98;;;6.95;;
41233;SDS011;26968;42.686;23.352;2023-06-14T02:24:07;8.68;;;7.05;;
41233;SDS011;26968;42.686;23.352;2023-06-14T02:26:32;8.63;;;7.28;;
41233;SDS011;26968;42.686;23.352;2023-06-14T02:28:58;10.77;;;7.20;;
41233;SDS011;26968;42.686;23.352;2023-06-14T02:31:23;14.73;;;7.70;;
41233;SDS011;26968;42.686;23.352;2023-06-14T02:33:49;14.05;;;7.55;;
41233;SDS011;26968;42.686;23.352;2023-06-14T02:36:15;10.07;;;7.30;;
41233;SDS011;26968;42.686;23.352;2023-06-14T02:38:40;10.75;;;7.00;;
41233;SDS011;26968;42.686;23.352;2023-06-14T02:41:06;9.25;;;7.43;;
41233;SDS011;26968;42.686;23.352;2023-06-14T02:43:31;12.68;;;7.45;;
41233;SDS011;26968;42.686;23.352;2023-06-14T02:45:57;13.07;;;7.07;;
41233;SDS011;26968;42.686;23.352;2023-06-14T02:48:22;15.55;;;8.13;;
41233;SDS011;26968;42.686;23.352;2023-06-14T02:50:47;11.18;;;7.07;;
41233;SDS011;26968;42.686;23.352;2023-06-14T02:53:13;9.65;;;7.28;;
41233;SDS011;26968;42.686;23.352;2023-06-14T02:55:38;10.23;;;6.90;;
41233;SDS011;26968;42.686;23.352;2023-06-14T02:58:05;12.40;;;8.05;;
41233;SDS011;26968;42.686;23.352;2023-06-14T03:00:30;8.10;;;6.75;;
41233;SDS011;26968;42.686;23.352;2023-06-14T03:02:56;8.43;;;6.97;;
41233;SDS011;26968;42.686;23.352;2023-06-14T03:05:21;15.27;;;7.53;;
41233;SDS011;26968;42.686;23.352;2023-06-14T03:07:47;10.68;;;7.43;;
41233;SDS011;26968;42.686;23.352;2023-06-14T03:10:13;14.77;;;8.02;;
41233;SDS011;26968;42.686;23.352;2023-06-14T03:12:39;22.88;;;7.90;;
41233;SDS011;26968;42.686;23.352;2023-06-14T03:15:05;8.32;;;6.32;;
41233;SDS011;26968;42.686;23.352;2023-06-14T03:17:30;11.00;;;7.28;;
41233;SDS011;26968;42.686;23.352;2023-06-14T03:19:59;10.57;;;6.95;;
41233;SDS011;26968;42.686;23.352;2023-06-14T03:22:25;15.45;;;8.05;;
41233;SDS011;26968;42.686;23.352;2023-06-14T03:24:51;11.93;;;7.07;;
41233;SDS011;26968;42.686;23.352;2023-06-14T03:27:17;14.50;;;8.15;;
41233;SDS011;26968;42.686;23.352;2023-06-14T03:29:43;13.00;;;7.88;;
41233;SDS011;26968;42.686;23.352;2023-06-14T03:32:09;11.48;;;7.63;;
41233;SDS011;26968;42.686;23.352;2023-06-14T03:34:34;17.98;;;7.63;;
41233;SDS011;26968;42.686;23.352;2023-06-14T03:37:00;14.50;;;8.27;;
41233;SDS011;26968;42.686;23.352;2023-06-14T03:39:26;14.00;;;7.10;;
41233;SDS011;26968;42.686;23.352;2023-06-14T03:41:51;15.43;;;8.55;;
41233;SDS011;26968;42.686;23.352;2023-06-14T03:44:18;15.32;;;8.10;;
41233;SDS011;26968;42.686;23.352;2023-06-14T03:46:44;14.05;;;8.00;;
41233;SDS011;26968;42.686;23.352;2023-06-14T03:49:11;18.08;;;7.93;;
41233;SDS011;26968;42.686;23.352;2023-06-14T03:51:36;16.48;;;8.32;;
41233;SDS011;26968;42.686;23.352;2023-06-14T03:54:02;15.95;;;8.77;;
41233;SDS011;26968;42.686;23.352;2023-06-14T03:56:27;20.05;;;9.35;;
41233;SDS011;26968;42.686;23.352;2023-06-14T03:58:53;15.95;;;8.35;;
41233;SDS011;26968;42.686;23.352;2023-06-14T04:01:18;18.92;;;8.75;;
41233;SDS011;26968;42.686;23.352;2023-06-14T04:03:44;19.63;;;8.18;;
41233;SDS011;26968;42.686;23.352;2023-06-14T04:06:09;13.13;;;8.32;;
41233;SDS011;26968;42.686;23.352;2023-06-14T04:08:34;16.48;;;8.18;;
41233;SDS011;26968;42.686;23.352;2023-06-14T04:11:00;17.35;;;7.50;;
41233;SDS011;26968;42.686;23.352;2023-06-14T04:13:26;17.08;;;8.30;;
41233;SDS011;26968;42.686;23.352;2023-06-14T04:15:52;14.80;;;8.35;;
41233;SDS011;26968;42.686;23.352;2023-06-14T04:18:17;12.23;;;7.97;;
41233;SDS011;26968;42.686;23.352;2023-06-14T04:20:44;13.25;;;8.25;;
41233;SDS011;26968;42.686;23.352;2023-06-14T04:25:46;15.13;;;8.68;;
41233;SDS011;26968;42.686;23.352;2023-06-14T04:28:13;14.63;;;8.63;;
41233;SDS011;26968;42.686;23.352;2023-06-14T04:30:42;14.98;;;8.32;;
41233;SDS011;26968;42.686;23.352;2023-06-14T04:33:12;14.00;;;8.77;;
41233;SDS011;26968;42.686;23.352;2023-06-14T04:35:39;15.35;;;8.73;;
41233;SDS011;26968;42.686;23.352;2023-06-14T04:38:05;13.23;;;8.68;;
41233;SDS011;26968;42.686;23.352;2023-06-14T04:40:38;20.23;;;9.73;;
41233;SDS011;26968;42.686;23.352;2023-06-14T04:43:08;13.50;;;9.05;;
41233;SDS011;26968;42.686;23.352;2023-06-14T04:45:35;13.73;;;9.75;;
41233;SDS011;26968;42.686;23.352;2023-06-14T04:48:01;17.40;;;9.00;;
41233;SDS011;26968;42.686;23.352;2023-06-14T04:50:28;13.30;;;10.10;;
41233;SDS011;26968;42.686;23.352;2023-06-14T04:52:54;18.42;;;11.15;;
41233;SDS011;26968;42.686;23.352;2023-06-14T04:55:20;17.50;;;10.70;;
41233;SDS011;26968;42.686;23.352;2023-06-14T04:57:46;13.73;;;10.38;;
41233;SDS011;26968;42.686;23.352;2023-06-14T05:00:11;16.10;;;10.52;;
41233;SDS011;26968;42.686;23.352;2023-06-14T05:02:37;13.75;;;10.48;;
41233;SDS011;26968;42.686;23.352;2023-06-14T05:05:03;17.00;;;9.93;;
41233;SDS011;26968;42.686;23.352;2023-06-14T05:07:32;22.23;;;11.00;;
41233;SDS011;26968;42.686;23.352;2023-06-14T05:10:02;17.00;;;11.00;;
41233;SDS011;26968;42.686;23.352;2023-06-14T05:12:28;15.75;;;11.00;;
41233;SDS011;26968;42.686;23.352;2023-06-14T05:14:54;17.45;;;11.52;;
41233;SDS011;26968;42.686;23.352;2023-06-14T05:17:19;20.10;;;11.85;;
41233;SDS011;26968;42.686;23.352;2023-06-14T05:19:45;15.73;;;11.10;;
41233;SDS011;26968;42.686;23.352;2023-06-14T05:22:11;13.68;;;10.90;;
41233;SDS011;26968;42.686;23.352;2023-06-14T05:24:36;15.07;;;12.07;;
41233;SDS011;26968;42.686;23.352;2023-06-14T05:27:02;16.95;;;12.32;;
41233;SDS011;26968;42.686;23.352;2023-06-14T05:29:39;17.67;;;12.32;;
41233;SDS011;26968;42.686;23.352;2023-06-14T05:32:05;18.75;;;11.77;;
41233;SDS011;26968;42.686;23.352;2023-06-14T05:34:31;21.13;;;13.38;;
41233;SDS011;26968;42.686;23.352;2023-06-14T05:36:56;29.00;;;13.68;;
41233;SDS011;26968;42.686;23.352;2023-06-14T05:39:24;21.35;;;13.25;;
41233;SDS011;26968;42.686;23.352;2023-06-14T05:41:52;23.38;;;14.13;;
41233;SDS011;26968;42.686;23.352;2023-06-14T05:44:21;23.25;;;13.93;;
41233;SDS011;26968;42.686;23.352;2023-06-14T05:46:46;28.63;;;14.90;;
41233;SDS011;26968;42.686;23.352;2023-06-14T05:49:12;31.50;;;14.80;;
41233;SDS011;26968;42.686;23.352;2023-06-14T05:51:37;19.33;;;12.70;;
41233;SDS011;26968;42.686;23.352;2023-06-14T05:54:03;25.45;;;13.23;;
41233;SDS011;26968;42.686;23.352;2023-06-14T05:56:28;20.25;;;14.45;;
41233;SDS011;26968;42.686;23.352;2023-06-14T05:58:54;22.48;;;12.75;;
41233;SDS011;26968;42.686;23.352;2023-06-14T06:01:20;23.27;;;14.07;;
41233;SDS011;26968;42.686;23.352;2023-06-14T06:03:45;28.10;;;16.20;;
41233;SDS011;26968;42.686;23.352;2023-06-14T06:06:11;35.08;;;15.27;;
41233;SDS011;26968;42.686;23.352;2023-06-14T06:08:37;25.90;;;16.35;;
41233;SDS011;26968;42.686;23.352;2023-06-14T06:11:03;35.15;;;16.52;;
41233;SDS011;26968;42.686;23.352;2023-06-14T06:13:29;33.72;;;15.88;;
41233;SDS011;26968;42.686;23.352;2023-06-14T06:15:54;23.65;;;15.30;;
41233;SDS011;26968;42.686;23.352;2023-06-14T06:18:19;26.63;;;14.23;;
41233;SDS011;26968;42.686;23.352;2023-06-14T06:20:46;28.75;;;15.02;;
41233;SDS011;26968;42.686;23.352;2023-06-14T06:23:12;23.23;;;15.23;;
41233;SDS011;26968;42.686;23.352;2023-06-14T06:25:37;28.48;;;15.30;;
41233;SDS011;26968;42.686;23.352;2023-06-14T06:28:03;22.05;;;14.20;;
41233;SDS011;26968;42.686;23.352;2023-06-14T06:30:28;21.77;;;13.60;;
41233;SDS011;26968;42.686;23.352;2023-06-14T06:32:55;24.95;;;13.43;;
41233;SDS011;26968;42.686;23.352;2023-06-14T06:35:20;21.83;;;13.43;;
41233;SDS011;26968;42.686;23.352;2023-06-14T06:37:46;20.27;;;15.02;;
41233;SDS011;26968;42.686;23.352;2023-06-14T06:40:11;20.58;;;14.77;;
41233;SDS011;26968;42.686;23.352;2023-06-14T06:42:37;23.95;;;14.23;;
41233;SDS011;26968;42.686;23.352;2023-06-14T06:45:03;22.40;;;14.57;;
41233;SDS011;26968;42.686;23.352;2023-06-14T06:47:29;21.50;;;14.38;;
41233;SDS011;26968;42.686;23.352;2023-06-14T06:49:55;21.92;;;14.25;;
41233;SDS011;26968;42.686;23.352;2023-06-14T06:52:20;16.40;;;13.65;;
41233;SDS011;26968;42.686;23.352;2023-06-14T06:54:45;22.40;;;13.98;;
41233;SDS011;26968;42.686;23.352;2023-06-14T06:57:11;18.85;;;13.90;;
41233;SDS011;26968;42.686;23.352;2023-06-14T06:59:37;26.73;;;15.18;;
41233;SDS011;26968;42.686;23.352;2023-06-14T07:02:02;24.45;;;15.77;;
41233;SDS011;26968;42.686;23.352;2023-06-14T07:04:28;20.23;;;15.23;;
41233;SDS011;26968;42.686;23.352;2023-06-14T07:06:55;28.67;;;17.23;;
41233;SDS011;26968;42.686;23.352;2023-06-14T07:09:21;29.48;;;18.00;;
41233;SDS011;26968;42.686;23.352;2023-06-14T07:11:47;29.50;;;17.10;;
41233;SDS011;26968;42.686;23.352;2023-06-14T07:14:13;26.33;;;16.45;;
41233;SDS011;26968;42.686;23.352;2023-06-14T07:16:41;24.48;;;16.55;;
41233;SDS011;26968;42.686;23.352;2023-06-14T07:19:07;25.10;;;16.83;;
41233;SDS011;26968;42.686;23.352;2023-06-14T07:21:34;30.13;;;18.20;;
41233;SDS011;26968;42.686;23.352;2023-06-14T07:24:00;25.95;;;16.67;;
41233;SDS011;26968;42.686;23.352;2023-06-14T07:26:25;20.80;;;15.70;;
41233;SDS011;26968;42.686;23.352;2023-06-14T07:28:51;26.67;;;15.60;;
41233;SDS011;26968;42.686;23.352;2023-06-14T07:31:17;27.77;;;17.20;;
41233;SDS011;26968;42.686;23.352;2023-06-14T07:33:44;25.85;;;18.52;;
41233;SDS011;26968;42.686;23.352;2023-06-14T07:36:09;25.20;;;18.05;;
41233;SDS011;26968;42.686;23.352;2023-06-14T07:38:35;28.92;;;17.20;;
41233;SDS011;26968;42.686;23.352;2023-06-14T07:41:01;23.90;;;16.48;;
41233;SDS011;26968;42.686;23.352;2023-06-14T07:43:27;25.75;;;15.45;;
41233;SDS011;26968;42.686;23.352;2023-06-14T07:45:52;29.83;;;19.52;;
41233;SDS011;26968;42.686;23.352;2023-06-14T07:48:18;29.15;;;19.35;;
41233;SDS011;26968;42.686;23.352;2023-06-14T07:50:43;24.15;;;17.35;;
41233;SDS011;26968;42.686;23.352;2023-06-14T07:53:09;24.63;;;15.82;;
41233;SDS011;26968;42.686;23.352;2023-06-14T07:55:34;25.15;;;17.48;;
41233;SDS011;26968;42.686;23.352;2023-06-14T07:58:02;27.17;;;17.70;;
41233;SDS011;26968;42.686;23.352;2023-06-14T08:00:28;29.67;;;16.77;;
41233;SDS011;26968;42.686;23.352;2023-06-14T08:02:56;22.02;;;15.77;;
41233;SDS011;26968;42.686;23.352;2023-06-14T08:05:23;26.73;;;15.55;;
41233;SDS011;26968;42.686;23.352;2023-06-14T08:07:52;19.63;;;15.10;;
41233;SDS011;26968;42.686;23.352;2023-06-14T08:10:17;23.77;;;14.90;;
41233;SDS011;26968;42.686;23.352;2023-06-14T08:12:43;22.83;;;15.85;;
41233;SDS011;26968;42.686;23.352;2023-06-14T08:15:08;20.90;;;14.57;;
41233;SDS011;26968;42.686;23.352;2023-06-14T08:17:34;17.15;;;13.20;;
41233;SDS011;26968;42.686;23.352;2023-06-14T08:20:00;22.55;;;15.18;;
41233;SDS011;26968;42.686;23.352;2023-06-14T08:22:25;21.27;;;12.60;;
41233;SDS011;26968;42.686;23.352;2023-06-14T08:24:53;18.67;;;14.05;;
41233;SDS011;26968;42.686;23.352;2023-06-14T08:27:19;22.35;;;13.00;;
41233;SDS011;26968;42.686;23.352;2023-06-14T08:29:45;17.50;;;13.27;;
41233;SDS011;26968;42.686;23.352;2023-06-14T08:32:10;19.23;;;14.23;;
41233;SDS011;26968;42.686;23.352;2023-06-14T08:34:39;17.27;;;12.57;;
41233;SDS011;26968;42.686;23.352;2023-06-14T08:37:05;18.02;;;12.93;;
41233;SDS011;26968;42.686;23.352;2023-06-14T08:39:31;21.80;;;12.75;;
41233;SDS011;26968;42.686;23.352;2023-06-14T08:41:57;19.80;;;12.07;;
41233;SDS011;26968;42.686;23.352;2023-06-14T08:44:23;14.98;;;11.40;;
41233;SDS011;26968;42.686;23.352;2023-06-14T08:46:56;18.85;;;12.00;;
41233;SDS011;26968;42.686;23.352;2023-06-14T08:49:24;16.50;;;11.32;;
41233;SDS011;26968;42.686;23.352;2023-06-14T08:51:56;19.02;;;11.60;;
41233;SDS011;26968;42.686;23.352;2023-06-14T08:54:27;16.23;;;10.90;;
41233;SDS011;26968;42.686;23.352;2023-06-14T08:56:55;14.35;;;10.35;;
41233;SDS011;26968;42.686;23.352;2023-06-14T08:59:31;16.90;;;11.27;;
41233;SDS011;26968;42.686;23.352;2023-06-14T09:02:04;18.55;;;11.23;;
41233;SDS011;26968;42.686;23.352;2023-06-14T09:04:30;18.17;;;11.23;;
41233;SDS011;26968;42.686;23.352;2023-06-14T09:06:57;17.30;;;11.55;;
41233;SDS011;26968;42.686;23.352;2023-06-14T09:09:24;13.55;;;10.60;;
41233;SDS011;26968;42.686;23.352;2023-06-14T09:11:51;26.77;;;11.85;;
41233;SDS011;26968;42.686;23.352;2023-06-14T09:14:18;15.40;;;10.77;;
41233;SDS011;26968;42.686;23.352;2023-06-14T09:16:44;15.20;;;12.23;;
41233;SDS011;26968;42.686;23.352;2023-06-14T09:19:13;18.42;;;12.70;;
41233;SDS011;26968;42.686;23.352;2023-06-14T09:21:47;14.18;;;10.95;;
41233;SDS011;26968;42.686;23.352;2023-06-14T09:24:13;15.50;;;11.70;;
41233;SDS011;26968;42.686;23.352;2023-06-14T09:26:40;16.83;;;11.52;;
41233;SDS011;26968;42.686;23.352;2023-06-14T09:29:06;14.18;;;11.70;;
41233;SDS011;26968;42.686;23.352;2023-06-14T09:31:32;13.00;;;10.75;;
41233;SDS011;26968;42.686;23.352;2023-06-14T09:33:58;19.65;;;11.70;;
41233;SDS011;26968;42.686;23.352;2023-06-14T09:36:27;18.15;;;11.75;;
41233;SDS011;26968;42.686;23.352;2023-06-14T09:38:53;13.63;;;11.25;;
41233;SDS011;26968;42.686;23.352;2023-06-14T09:41:32;15.52;;;10.82;;
41233;SDS011;26968;42.686;23.352;2023-06-14T09:43:59;10.63;;;8.70;;
41233;SDS011;26968;42.686;23.352;2023-06-14T09:46:34;14.63;;;9.63;;
41233;SDS011;26968;42.686;23.352;2023-06-14T09:49:01;16.33;;;10.68;;
41233;SDS011;26968;42.686;23.352;2023-06-14T09:51:28;16.83;;;10.40;;
41233;SDS011;26968;42.686;23.352;2023-06-14T09:53:58;13.95;;;11.27;;
41233;SDS011;26968;42.686;23.352;2023-06-14T09:56:34;14.90;;;10.95;;
41233;SDS011;26968;42.686;23.352;2023-06-14T09:59:02;20.20;;;11.23;;
41233;SDS011;26968;42.686;23.352;2023-06-14T10:01:30;18.52;;;10.52;;
41233;SDS011;26968;42.686;23.352;2023-06-14T10:04:03;13.63;;;11.00;;
41233;SDS011;26968;42.686;23.352;2023-06-14T10:06:30;14.65;;;10.65;;
41233;SDS011;26968;42.686;23.352;2023-06-14T10:08:58;12.60;;;8.48;;
41233;SDS011;26968;42.686;23.352;2023-06-14T10:11:28;13.25;;;10.25;;
41233;SDS011;26968;42.686;23.352;2023-06-14T10:13:57;15.23;;;10.90;;
41233;SDS011;26968;42.686;23.352;2023-06-14T10:16:28;19.88;;;11.60;;
41233;SDS011;26968;42.686;23.352;2023-06-14T10:19:11;17.92;;;10.20;;
41233;SDS011;26968;42.686;23.352;2023-06-14T10:22:01;13.57;;;10.27;;
41233;SDS011;26968;42.686;23.352;2023-06-14T10:24:43;14.30;;;9.73;;
41233;SDS011;26968;42.686;23.352;2023-06-14T10:27:13;17.88;;;10.20;;
41233;SDS011;26968;42.686;23.352;2023-06-14T10:32:24;11.88;;;10.38;;
41233;SDS011;26968;42.686;23.352;2023-06-14T10:34:54;14.70;;;9.35;;
41233;SDS011;26968;42.686;23.352;2023-06-14T10:37:21;14.45;;;9.18;;
41233;SDS011;26968;42.686;23.352;2023-06-14T10:39:46;11.90;;;8.45;;
41233;SDS011;26968;42.686;23.352;2023-06-14T10:42:13;12.90;;;9.43;;
41233;SDS011;26968;42.686;23.352;2023-06-14T10:44:45;15.48;;;9.73;;
41233;SDS011;26968;42.686;23.352;2023-06-14T10:47:32;15.18;;;9.73;;
41233;SDS011;26968;42.686;23.352;2023-06-14T10:50:06;13.93;;;9.60;;
41233;SDS011;26968;42.686;23.352;2023-06-14T10:55:10;16.73;;;8.82;;
41233;SDS011;26968;42.686;23.352;2023-06-14T11:00:11;13.63;;;8.57;;
41233;SDS011;26968;42.686;23.352;2023-06-14T11:05:26;11.70;;;8.32;;
41233;SDS011;26968;42.686;23.352;2023-06-14T11:10:43;12.82;;;9.05;;
41233;SDS011;26968;42.686;23.352;2023-06-14T11:13:10;13.15;;;8.68;;
41233;SDS011;26968;42.686;23.352;2023-06-14T11:15:36;13.35;;;9.20;;
41233;SDS011;26968;42.686;23.352;2023-06-14T11:18:07;11.15;;;8.23;;
41233;SDS011;26968;42.686;23.352;2023-06-14T11:23:00;12.18;;;8.82;;
41233;SDS011;26968;42.686;23.352;2023-06-14T11:25:27;14.68;;;9.32;;
41233;SDS011;26968;42.686;23.352;2023-06-14T11:27:55;13.57;;;7.72;;
41233;SDS011;26968;42.686;23.352;2023-06-14T11:30:22;10.55;;;7.18;;
41233;SDS011;26968;42.686;23.352;2023-06-14T11:32:48;9.45;;;7.75;;
41233;SDS011;26968;42.686;23.352;2023-06-14T11:35:15;13.32;;;8.02;;
41233;SDS011;26968;42.686;23.352;2023-06-14T11:37:42;9.98;;;8.40;;
41233;SDS011;26968;42.686;23.352;2023-06-14T11:40:09;9.18;;;7.15;;
41233;SDS011;26968;42.686;23.352;2023-06-14T11:42:36;16.38;;;8.60;;
41233;SDS011;26968;42.686;23.352;2023-06-14T11:45:03;8.07;;;7.20;;
41233;SDS011;26968;42.686;23.352;2023-06-14T11:47:32;8.07;;;7.20;;
41233;SDS011;26968;42.686;23.352;2023-06-14T11:50:02;12.30;;;9.32;;
41233;SDS011;26968;42.686;23.352;2023-06-14T11:52:28;9.20;;;7.30;;
41233;SDS011;26968;42.686;23.352;2023-06-14T11:54:54;9.80;;;7.63;;
41233;SDS011;26968;42.686;23.352;2023-06-14T11:57:22;8.88;;;7.47;;
41233;SDS011;26968;42.686;23.352;2023-06-14T11:59:48;8.45;;;7.38;;
41233;SDS011;26968;42.686;23.352;2023-06-14T12:02:14;12.15;;;7.03;;
41233;SDS011;26968;42.686;23.352;2023-06-14T12:04:41;12.07;;;6.40;;
41233;SDS011;26968;42.686;23.352;2023-06-14T12:07:13;7.35;;;6.65;;
41233;SDS011;26968;42.686;23.352;2023-06-14T12:12:24;9.90;;;6.40;;
41233;SDS011;26968;42.686;23.352;2023-06-14T12:14:50;9.68;;;6.30;;
41233;SDS011;26968;42.686;23.352;2023-06-14T12:17:18;10.93;;;6.55;;
41233;SDS011;26968;42.686;23.352;2023-06-14T12:19:46;9.30;;;6.60;;
41233;SDS011;26968;42.686;23.352;2023-06-14T12:22:15;12.50;;;6.65;;
41233;SDS011;26968;42.686;23.352;2023-06-14T12:24:44;7.13;;;6.43;;
41233;SDS011;26968;42.686;23.352;2023-06-14T12:27:11;8.90;;;6.25;;
41233;SDS011;26968;42.686;23.352;2023-06-14T12:29:43;8.80;;;6.57;;
41233;SDS011;26968;42.686;23.352;2023-06-14T12:32:09;12.20;;;6.38;;
41233;SDS011;26968;42.686;23.352;2023-06-14T12:34:35;8.10;;;6.80;;
41233;SDS011;26968;42.686;23.352;2023-06-14T12:37:00;7.10;;;5.97;;
41233;SDS011;26968;42.686;23.352;2023-06-14T12:39:26;12.98;;;5.80;;
41233;SDS011;26968;42.686;23.352;2023-06-14T12:41:51;6.05;;;5.13;;
41233;SDS011;26968;42.686;23.352;2023-06-14T12:44:17;6.90;;;5.25;;
41233;SDS011;26968;42.686;23.352;2023-06-14T12:46:42;6.68;;;5.55;;
41233;SDS011;26968;42.686;23.352;2023-06-14T12:49:09;7.05;;;5.53;;
41233;SDS011;26968;42.686;23.352;2023-06-14T12:51:36;7.15;;;5.38;;
41233;SDS011;26968;42.686;23.352;2023-06-14T12:54:02;6.25;;;5.60;;
41233;SDS011;26968;42.686;23.352;2023-06-14T12:56:28;8.85;;;5.90;;
41233;SDS011;26968;42.686;23.352;2023-06-14T12:58:54;7.70;;;6.10;;
41233;SDS011;26968;42.686;23.352;2023-06-14T13:01:20;6.57;;;5.25;;
41233;SDS011;26968;42.686;23.352;2023-06-14T13:03:48;7.45;;;5.45;;
41233;SDS011;26968;42.686;23.352;2023-06-14T13:06:15;7.55;;;5.63;;
41233;SDS011;26968;42.686;23.352;2023-06-14T13:08:41;9.02;;;6.00;;
41233;SDS011;26968;42.686;23.352;2023-06-14T13:11:07;8.88;;;5.68;;
41233;SDS011;26968;42.686;23.352;2023-06-14T13:13:34;8.45;;;5.03;;
41233;SDS011;26968;42.686;23.352;2023-06-14T13:16:00;6.95;;;5.20;;
41233;SDS011;26968;42.686;23.352;2023-06-14T13:18:25;5.85;;;4.82;;
41233;SDS011;26968;42.686;23.352;2023-06-14T13:20:51;8.45;;;5.85;;
41233;SDS011;26968;42.686;23.352;2023-06-14T13:23:17;9.55;;;6.15;;
41233;SDS011;26968;42.686;23.352;2023-06-14T13:25:42;10.10;;;6.68;;
41233;SDS011;26968;42.686;23.352;2023-06-14T13:28:08;9.40;;;5.93;;
41233;SDS011;26968;42.686;23.352;2023-06-14T13:30:34;8.23;;;6.10;;
41233;SDS011;26968;42.686;23.352;2023-06-14T13:33:00;11.45;;;6.50;;
41233;SDS011;26968;42.686;23.352;2023-06-14T13:35:26;9.70;;;6.60;;
41233;SDS011;26968;42.686;23.352;2023-06-14T13:37:51;11.32;;;7.60;;
41233;SDS011;26968;42.686;23.352;2023-06-14T13:40:17;15.20;;;8.30;;
41233;SDS011;26968;42.686;23.352;2023-06-14T13:42:43;12.57;;;8.75;;
41233;SDS011;26968;42.686;23.352;2023-06-14T13:45:09;13.55;;;7.63;;
41233;SDS011;26968;42.686;23.352;2023-06-14T13:47:36;17.67;;;8.13;;
41233;SDS011;26968;42.686;23.352;2023-06-14T13:50:02;12.57;;;8.13;;
41233;SDS011;26968;42.686;23.352;2023-06-14T13:52:28;14.45;;;7.50;;
41233;SDS011;26968;42.686;23.352;2023-06-14T13:54:53;9.85;;;7.75;;
41233;SDS011;26968;42.686;23.352;2023-06-14T13:57:19;12.60;;;8.60;;
41233;SDS011;26968;42.686;23.352;2023-06-14T13:59:44;11.43;;;9.07;;
41233;SDS011;26968;42.686;23.352;2023-06-14T14:02:10;15.15;;;9.35;;
41233;SDS011;26968;42.686;23.352;2023-06-14T14:04:37;13.13;;;8.77;;
41233;SDS011;26968;42.686;23.352;2023-06-14T14:07:03;10.20;;;8.35;;
41233;SDS011;26968;42.686;23.352;2023-06-14T14:09:29;13.93;;;9.68;;
41233;SDS011;26968;42.686;23.352;2023-06-14T14:11:55;16.35;;;8.27;;
41233;SDS011;26968;42.686;23.352;2023-06-14T14:14:21;11.15;;;8.80;;
41233;SDS011;26968;42.686;23.352;2023-06-14T14:16:46;15.52;;;8.60;;
41233;SDS011;26968;42.686;23.352;2023-06-14T14:19:11;14.57;;;9.52;;
41233;SDS011;26968;42.686;23.352;2023-06-14T14:21:37;14.30;;;9.15;;
41233;SDS011;26968;42.686;23.352;2023-06-14T14:24:02;11.35;;;8.52;;
41233;SDS011;26968;42.686;23.352;2023-06-14T14:26:28;11.25;;;8.38;;
41233;SDS011;26968;42.686;23.352;2023-06-14T14:28:54;14.57;;;9.65;;
41233;SDS011;26968;42.686;23.352;2023-06-14T14:31:19;13.82;;;8.95;;
41233;SDS011;26968;42.686;23.352;2023-06-14T14:33:45;12.40;;;8.10;;
41233;SDS011;26968;42.686;23.352;2023-06-14T14:36:10;13.43;;;7.63;;
41233;SDS011;26968;42.686;23.352;2023-06-14T14:38:36;11.15;;;8.45;;
41233;SDS011;26968;42.686;23.352;2023-06-14T14:41:01;11.85;;;7.82;;
41233;SDS011;26968;42.686;23.352;2023-06-14T14:43:26;10.93;;;8.45;;
41233;SDS011;26968;42.686;23.352;2023-06-14T14:45:55;10.55;;;8.20;;